In Rescue
 
Open Full Screen Window  High Contrast Mode
July 13, 2020 11:32 PM CDT
Weather Information
Wind Direction
  ---
Wind Speed
  00 kt (0 mph)
Wind Gust
  00 kt (0 mph)
Altimeter
29.75 in
Visibility
7 SM
Temperature
15° C
59° F
Dewpoint
14° C
57° F
Humidity
94%
1hr Rain Fall
00.00 in.
24hr Rain Fall
00.02 in.
Sky Condition
Clear
VFR

METAR KFSE 140432Z AUTO 00000KT 7SM CLR 15/14 A2975 RMK AO2

FAA Disclaimer: The data displayed is for advisory purposes only and is not to be used for flight planning or operations.